Time;durP1;ratioP1;P1;durP2;ratioP2;P2;SDS_P1;SDS_P2;PMS_P1;PMS_P2;Temp;Humidity;BMP_temperature;BMP_pressure;BME280_temperature;BME280_humidity;BME280_pressure;Samples;Min_cycle;Max_cycle;Signal;HPM_P1;HPM_P2
2022/11/03 00:02:00;;;;;;;16.63;2.63;;;11.90;99.90;;;;;;5046513;28;20228;-71
2022/11/03 00:04:27;;;;;;;13.70;3.50;;;11.90;99.90;;;;;;5049580;28;20197;-72
2022/11/03 00:06:54;;;;;;;13.63;3.03;;;11.90;99.90;;;;;;5049760;28;20249;-71
2022/11/03 00:09:22;;;;;;;13.80;2.70;;;11.90;99.90;;;;;;5047087;28;20591;-71
2022/11/03 00:11:50;;;;;;;13.70;3.03;;;11.80;99.90;;;;;;5047657;28;20244;-72
2022/11/03 00:14:18;;;;;;;16.60;3.53;;;11.80;99.90;;;;;;5049584;28;20197;-70
2022/11/03 00:16:45;;;;;;;12.20;3.50;;;11.80;99.90;;;;;;5044457;28;20283;-71
2022/11/03 00:19:15;;;;;;;10.20;2.73;;;11.80;99.90;;;;;;5048828;28;20677;-71
2022/11/03 00:21:42;;;;;;;12.03;3.30;;;11.80;99.90;;;;;;5047895;28;20603;-71
2022/11/03 00:24:12;;;;;;;6.10;2.60;;;11.80;99.90;;;;;;5043229;28;20265;-72
2022/11/03 00:26:38;;;;;;;13.47;2.97;;;11.80;99.90;;;;;;5049538;28;20205;-71
2022/11/03 00:29:08;;;;;;;14.47;2.93;;;11.70;99.90;;;;;;5044230;28;20317;-72
2022/11/03 00:31:41;;;;;;;11.30;3.13;;;11.70;99.90;;;;;;5042076;28;20201;-72
2022/11/03 00:34:09;;;;;;;10.77;3.13;;;11.70;99.90;;;;;;5050348;28;20208;-70
2022/11/03 00:36:41;;;;;;;7.80;3.47;;;11.70;99.90;;;;;;5047629;28;20220;-71
2022/11/03 00:39:09;;;;;;;12.97;3.50;;;11.70;99.90;;;;;;5044409;28;20312;-71
2022/11/03 00:41:36;;;;;;;12.33;3.00;;;11.70;99.90;;;;;;5049659;28;20728;-71
2022/11/03 00:44:04;;;;;;;8.93;2.57;;;11.70;99.90;;;;;;5042841;28;20664;-71
2022/11/03 00:46:33;;;;;;;13.37;2.70;;;11.60;99.90;;;;;;5043969;28;20721;-71
2022/11/03 00:49:03;;;;;;;11.87;3.13;;;11.60;99.90;;;;;;5043889;28;20256;-71
2022/11/03 00:51:30;;;;;;;10.80;2.90;;;11.70;99.90;;;;;;5047000;28;21001;-73
2022/11/03 00:54:00;;;;;;;15.33;3.23;;;11.60;99.90;;;;;;5049736;28;20233;-71
2022/11/03 00:56:36;;;;;;;13.20;3.10;;;11.60;99.90;;;;;;5028230;28;20235;-71
2022/11/03 00:59:05;;;;;;;10.37;2.90;;;11.60;99.90;;;;;;5042639;28;20320;-70
2022/11/03 01:01:39;;;;;;;10.30;2.87;;;11.60;99.90;;;;;;5047407;28;20205;-71
2022/11/03 01:07:00;;;;;;;14.43;2.73;;;11.50;99.90;;;;;;5043724;28;20567;-71
2022/11/03 01:09:29;;;;;;;11.10;2.77;;;11.50;99.90;;;;;;5031664;28;20232;-71
2022/11/03 01:11:57;;;;;;;11.17;3.00;;;11.50;99.90;;;;;;5027497;28;20209;-71
2022/11/03 01:14:26;;;;;;;10.23;3.37;;;11.50;99.90;;;;;;5031971;28;21156;-72
2022/11/03 01:16:53;;;;;;;11.87;3.13;;;11.50;99.90;;;;;;5044800;28;20267;-70
2022/11/03 01:19:20;;;;;;;11.47;2.90;;;11.40;99.90;;;;;;5047422;28;20217;-71
2022/11/03 01:21:48;;;;;;;17.10;4.83;;;11.40;99.90;;;;;;5045001;28;20336;-71
2022/11/03 01:24:15;;;;;;;13.90;2.83;;;11.40;99.90;;;;;;5023197;28;20216;-71
2022/11/03 01:26:42;;;;;;;16.97;3.07;;;11.40;99.90;;;;;;5032257;28;20197;-72
2022/11/03 01:29:09;;;;;;;12.70;3.00;;;11.40;99.90;;;;;;5047224;28;20208;-72
2022/11/03 01:31:35;;;;;;;11.87;2.93;;;11.40;99.90;;;;;;5033332;28;20228;-71
2022/11/03 01:34:02;;;;;;;12.80;3.30;;;11.40;99.90;;;;;;5046708;28;20209;-71
2022/11/03 01:36:29;;;;;;;10.93;3.60;;;11.40;99.90;;;;;;5042992;28;20213;-72
2022/11/03 01:38:56;;;;;;;12.23;3.20;;;11.30;99.90;;;;;;5041798;28;20749;-70
2022/11/03 01:41:26;;;;;;;9.77;2.87;;;11.30;99.90;;;;;;5024661;28;20219;-72
2022/11/03 01:44:16;;;;;;;13.33;3.13;;;11.30;99.90;;;;;;5041263;28;20208;-71
2022/11/03 01:46:50;;;;;;;14.87;3.70;;;11.30;99.90;;;;;;5035622;28;20236;-71
2022/11/03 01:49:23;;;;;;;17.87;3.70;;;11.30;99.90;;;;;;5041786;28;20210;-72
2022/11/03 01:52:01;;;;;;;19.87;3.37;;;11.30;99.90;;;;;;5025458;28;20231;-72
2022/11/03 01:54:30;;;;;;;12.07;3.00;;;11.30;99.90;;;;;;5026464;28;20732;-70
2022/11/03 01:56:58;;;;;;;19.27;3.70;;;11.30;99.90;;;;;;5030725;28;20300;-70
2022/11/03 01:59:26;;;;;;;13.37;3.10;;;11.30;99.90;;;;;;5040050;28;20738;-70
2022/11/03 02:01:53;;;;;;;12.53;3.20;;;11.30;99.90;;;;;;5047103;28;20283;-71
2022/11/03 02:04:26;;;;;;;11.87;3.93;;;11.30;99.90;;;;;;5026517;28;20301;-71
2022/11/03 02:07:08;;;;;;;16.23;3.50;;;11.30;99.90;;;;;;5045757;28;20305;-70
2022/11/03 02:09:34;;;;;;;12.23;3.10;;;11.30;99.90;;;;;;5043141;28;20201;-71
2022/11/03 02:12:07;;;;;;;11.47;3.37;;;11.30;99.90;;;;;;5048224;28;20284;-72
2022/11/03 02:14:48;;;;;;;12.63;3.50;;;11.30;99.90;;;;;;5046716;28;20627;-72
2022/11/03 02:17:19;;;;;;;14.50;3.03;;;11.40;99.90;;;;;;5041791;28;20219;-71
2022/11/03 02:20:15;;;;;;;11.70;3.30;;;11.30;99.90;;;;;;5028595;28;20235;-71
2022/11/03 02:23:20;;;;;;;15.03;3.33;;;11.30;99.90;;;;;;5043791;28;20330;-70
2022/11/03 02:25:52;;;;;;;11.03;3.00;;;11.20;99.90;;;;;;5040270;28;20280;-71
2022/11/03 02:28:23;;;;;;;11.63;2.93;;;11.20;99.90;;;;;;5044299;28;20263;-71
2022/11/03 02:31:10;;;;;;;10.33;3.33;;;11.20;99.90;;;;;;5050120;28;20263;-71
2022/11/03 02:33:42;;;;;;;16.07;3.83;;;11.20;99.90;;;;;;5046856;28;21039;-71
2022/11/03 02:36:16;;;;;;;15.50;3.10;;;11.20;99.90;;;;;;5043550;28;20797;-71
2022/11/03 02:38:53;;;;;;;11.20;3.10;;;11.20;99.90;;;;;;5044530;28;20349;-71
2022/11/03 02:41:21;;;;;;;11.70;2.90;;;11.20;99.90;;;;;;5041566;28;20239;-71
2022/11/03 02:43:48;;;;;;;15.63;3.20;;;11.20;99.90;;;;;;5029812;28;20233;-71
2022/11/03 02:46:16;;;;;;;12.70;3.50;;;11.20;99.90;;;;;;5031352;28;20232;-72
2022/11/03 02:48:44;;;;;;;12.73;3.23;;;11.20;99.90;;;;;;5046267;28;20641;-72
2022/11/03 02:51:10;;;;;;;11.73;3.10;;;11.20;99.90;;;;;;5047768;28;20746;-70
2022/11/03 02:54:04;;;;;;;11.70;3.70;;;11.20;99.90;;;;;;5046110;28;20686;-72
2022/11/03 02:56:38;;;;;;;13.83;3.40;;;11.20;99.90;;;;;;5048401;28;20233;-71
2022/11/03 02:59:10;;;;;;;12.90;3.33;;;11.20;99.90;;;;;;5031060;28;20221;-71
2022/11/03 03:01:47;;;;;;;15.57;3.43;;;11.20;99.90;;;;;;5032170;28;20240;-72
2022/11/03 03:04:31;;;;;;;12.57;3.30;;;11.20;99.90;;;;;;5042734;28;20201;-70
2022/11/03 03:07:23;;;;;;;14.87;3.57;;;11.10;99.90;;;;;;5050823;28;20713;-71
2022/11/03 03:09:59;;;;;;;8.53;2.73;;;11.20;99.90;;;;;;5047333;28;20197;-71
2022/11/03 03:12:27;;;;;;;9.33;3.07;;;11.20;99.90;;;;;;5031550;28;20296;-71
2022/11/03 03:14:57;;;;;;;18.90;3.63;;;11.20;99.90;;;;;;5044076;28;20201;-71
2022/11/03 03:17:33;;;;;;;10.27;3.80;;;11.20;99.90;;;;;;5042498;28;20292;-71
2022/11/03 03:20:09;;;;;;;15.37;3.13;;;11.20;99.90;;;;;;5041497;28;20269;-71
2022/11/03 03:22:46;;;;;;;17.17;3.37;;;11.20;99.90;;;;;;5037380;28;20242;-72
2022/11/03 03:25:26;;;;;;;13.10;2.97;;;11.20;99.90;;;;;;5043621;28;20208;-70
2022/11/03 03:27:59;;;;;;;13.03;3.30;;;11.20;99.90;;;;;;5028199;28;20292;-72
2022/11/03 03:30:27;;;;;;;14.80;2.90;;;11.30;99.90;;;;;;5032004;28;20220;-72
2022/11/03 03:32:56;;;;;;;9.47;2.70;;;11.20;99.90;;;;;;5034404;28;20234;-71
2022/11/03 03:35:29;;;;;;;10.10;3.13;;;11.20;99.90;;;;;;5045567;28;20310;-71
2022/11/03 03:38:01;;;;;;;11.90;2.90;;;11.20;99.90;;;;;;5042654;28;20218;-71
2022/11/03 03:40:33;;;;;;;13.83;3.27;;;11.20;99.90;;;;;;5029833;28;20264;-71
2022/11/03 03:43:02;;;;;;;11.33;2.93;;;11.30;99.90;;;;;;5046120;28;20288;-73
2022/11/03 03:45:31;;;;;;;11.53;3.10;;;11.20;99.90;;;;;;5046773;28;20300;-72
2022/11/03 03:47:58;;;;;;;15.27;3.40;;;11.20;99.90;;;;;;5043220;28;20241;-70
2022/11/03 03:50:30;;;;;;;11.90;3.10;;;11.20;99.90;;;;;;5031428;28;20228;-72
2022/11/03 03:53:00;;;;;;;12.07;3.30;;;11.20;99.90;;;;;;5043339;28;20260;-71
2022/11/03 03:55:37;;;;;;;12.37;3.40;;;11.10;99.90;;;;;;5049660;28;20304;-71
2022/11/03 03:58:05;;;;;;;14.63;3.80;;;11.20;99.90;;;;;;5042864;28;20284;-72
2022/11/03 04:00:32;;;;;;;12.20;3.20;;;11.10;99.90;;;;;;5045047;28;20265;-70
2022/11/03 04:02:59;;;;;;;11.83;3.47;;;11.10;99.90;;;;;;5045467;28;20237;-72
2022/11/03 04:05:26;;;;;;;11.53;3.43;;;11.10;99.90;;;;;;5044453;28;20228;-70
2022/11/03 04:07:53;;;;;;;20.83;4.00;;;11.10;99.90;;;;;;5033869;28;20334;-72
2022/11/03 04:10:21;;;;;;;10.37;3.40;;;11.10;99.90;;;;;;5047988;28;20321;-71
2022/11/03 04:23:39;;;;;;;14.53;3.90;;;11.10;99.90;;;;;;5049965;28;20241;-71
2022/11/03 04:26:12;;;;;;;13.23;3.33;;;11.20;99.90;;;;;;5047735;28;20215;-72
2022/11/03 04:28:40;;;;;;;9.47;2.93;;;11.20;99.90;;;;;;5045433;28;20260;-71
2022/11/03 04:31:15;;;;;;;11.20;3.20;;;11.20;99.90;;;;;;5044382;28;20207;-72
2022/11/03 04:33:42;;;;;;;15.20;3.67;;;11.20;99.90;;;;;;5045756;28;20627;-72
2022/11/03 04:36:15;;;;;;;12.67;3.67;;;11.30;99.90;;;;;;5039514;28;20665;-72
2022/11/03 04:38:43;;;;;;;13.47;3.67;;;11.30;99.90;;;;;;5047546;28;20327;-71
2022/11/03 04:41:27;;;;;;;8.43;2.90;;;11.30;99.90;;;;;;5047688;28;20255;-70
2022/11/03 04:43:55;;;;;;;14.20;3.37;;;11.30;99.90;;;;;;5046922;28;20200;-72
2022/11/03 04:46:27;;;;;;;10.43;3.00;;;11.40;99.90;;;;;;5025851;28;20684;-71
2022/11/03 04:48:58;;;;;;;13.97;3.40;;;11.40;99.90;;;;;;5026786;28;20236;-71
2022/11/03 04:51:28;;;;;;;9.37;4.07;;;11.40;99.90;;;;;;5047516;28;20742;-71
2022/11/03 04:54:01;;;;;;;12.70;3.70;;;11.40;99.90;;;;;;5042967;28;20225;-71
2022/11/03 04:56:28;;;;;;;12.27;3.00;;;11.40;99.90;;;;;;5044531;28;20281;-71
2022/11/03 04:58:57;;;;;;;9.33;4.07;;;11.50;99.90;;;;;;5048503;28;20208;-71
2022/11/03 05:01:26;;;;;;;12.50;3.60;;;11.50;99.90;;;;;;5027223;28;20255;-71
2022/11/03 05:03:53;;;;;;;12.20;2.97;;;11.50;99.90;;;;;;5046719;28;20211;-71
2022/11/03 05:06:25;;;;;;;12.13;3.17;;;11.50;99.90;;;;;;5024778;28;20237;-71
2022/11/03 05:08:57;;;;;;;10.83;3.23;;;11.50;99.90;;;;;;5044169;28;20258;-71
2022/11/03 05:11:30;;;;;;;10.33;3.47;;;11.50;99.90;;;;;;5031608;28;20669;-70
2022/11/03 05:14:03;;;;;;;9.40;2.50;;;11.50;99.90;;;;;;5046182;28;20296;-70
2022/11/03 05:16:30;;;;;;;10.43;3.03;;;11.50;99.90;;;;;;5044920;28;20609;-71
2022/11/03 05:18:58;;;;;;;10.07;2.63;;;11.50;99.90;;;;;;5030143;28;20204;-71
2022/11/03 05:21:26;;;;;;;11.63;3.80;;;11.50;99.90;;;;;;5047147;28;20267;-72
2022/11/03 05:23:57;;;;;;;15.67;3.40;;;11.50;99.90;;;;;;5043984;28;20581;-73
2022/11/03 05:26:29;;;;;;;10.67;3.33;;;11.50;99.90;;;;;;5047429;28;20293;-72
2022/11/03 05:28:58;;;;;;;12.63;3.37;;;11.40;99.90;;;;;;5045628;28;20204;-71
2022/11/03 05:31:28;;;;;;;15.93;3.17;;;11.40;99.90;;;;;;5047082;28;20208;-71
2022/11/03 05:34:01;;;;;;;10.77;3.30;;;11.50;99.90;;;;;;5047266;28;20232;-71
2022/11/03 05:36:30;;;;;;;8.40;2.70;;;11.50;99.90;;;;;;5021457;28;20589;-71
2022/11/03 05:39:27;;;;;;;15.53;4.23;;;11.50;99.90;;;;;;5047707;28;20610;-71
2022/11/03 05:41:56;;;;;;;10.77;2.80;;;11.50;99.90;;;;;;5027735;28;20201;-71
2022/11/03 05:44:38;;;;;;;11.57;2.93;;;11.50;99.90;;;;;;5024167;28;20234;-72
2022/11/03 05:47:13;;;;;;;7.20;2.97;;;11.50;99.90;;;;;;5041605;28;20676;-71
2022/11/03 05:49:40;;;;;;;10.83;2.97;;;11.50;99.90;;;;;;5024186;28;20307;-72
2022/11/03 05:52:18;;;;;;;15.93;3.43;;;11.50;99.90;;;;;;5030260;28;20224;-71
2022/11/03 05:54:45;;;;;;;11.13;3.63;;;11.50;99.90;;;;;;5044398;28;20228;-72
2022/11/03 05:57:16;;;;;;;10.53;3.43;;;11.50;99.90;;;;;;5048136;28;20327;-71
2022/11/03 05:59:46;;;;;;;11.17;2.80;;;11.50;99.90;;;;;;5043134;28;20268;-71
2022/11/03 06:02:25;;;;;;;13.17;3.17;;;11.50;99.90;;;;;;5048554;28;20282;-71
2022/11/03 06:04:52;;;;;;;10.83;3.17;;;11.50;99.90;;;;;;5043220;28;20205;-70
2022/11/03 06:07:28;;;;;;;8.90;3.50;;;11.50;99.90;;;;;;5051203;28;20220;-70
2022/11/03 06:09:56;;;;;;;9.63;3.10;;;11.50;99.90;;;;;;5045421;28;20587;-72
2022/11/03 06:12:24;;;;;;;12.07;3.00;;;11.50;99.90;;;;;;5045359;28;20296;-71
2022/11/03 06:14:51;;;;;;;12.73;3.23;;;11.50;99.90;;;;;;5043177;28;20691;-71
2022/11/03 06:17:24;;;;;;;11.07;2.80;;;11.50;99.90;;;;;;5032937;28;20201;-72
2022/11/03 06:19:54;;;;;;;10.23;3.00;;;11.50;99.90;;;;;;5043934;28;20233;-71
2022/11/03 06:22:25;;;;;;;10.93;2.60;;;11.50;99.90;;;;;;5046125;28;20248;-71
2022/11/03 06:25:13;;;;;;;9.87;3.20;;;11.50;99.90;;;;;;5046908;28;20855;-71
2022/11/03 06:27:40;;;;;;;11.57;4.33;;;11.50;99.90;;;;;;5045653;28;20256;-72
2022/11/03 06:30:29;;;;;;;10.00;3.23;;;11.50;99.90;;;;;;5042106;28;20308;-72
2022/11/03 06:33:05;;;;;;;13.07;3.63;;;11.50;99.90;;;;;;5043487;28;20893;-71
2022/11/03 06:35:34;;;;;;;9.80;3.00;;;11.50;99.90;;;;;;5025400;28;20514;-71
2022/11/03 06:38:00;;;;;;;8.53;3.80;;;11.50;99.90;;;;;;5048988;28;20201;-72
2022/11/03 06:40:37;;;;;;;14.97;3.53;;;11.50;99.90;;;;;;5046491;28;20220;-73
2022/11/03 06:43:27;;;;;;;13.00;3.70;;;11.50;99.90;;;;;;5047589;28;20201;-71
2022/11/03 06:45:57;;;;;;;9.83;2.87;;;11.50;99.90;;;;;;5046333;28;20211;-72
2022/11/03 06:48:27;;;;;;;11.33;2.97;;;11.50;99.90;;;;;;5043135;28;20209;-70
2022/11/03 06:50:55;;;;;;;12.30;3.40;;;11.50;99.90;;;;;;5042520;28;20743;-72
2022/11/03 06:53:31;;;;;;;14.43;4.40;;;11.50;99.90;;;;;;5043617;28;20209;-72
2022/11/03 06:55:58;;;;;;;12.30;3.27;;;11.60;99.90;;;;;;5046510;28;20282;-70
2022/11/03 06:58:29;;;;;;;12.73;3.37;;;11.60;99.90;;;;;;5039008;28;20295;-71
2022/11/03 07:01:00;;;;;;;9.93;3.80;;;11.60;99.90;;;;;;5038856;28;20220;-71
2022/11/03 07:03:32;;;;;;;8.10;2.70;;;11.60;99.90;;;;;;5043618;28;20202;-72
2022/11/03 07:06:04;;;;;;;14.70;4.57;;;11.60;99.90;;;;;;5024045;28;20235;-70
2022/11/03 07:08:36;;;;;;;9.67;3.43;;;11.70;99.90;;;;;;5043799;28;20291;-70
2022/11/03 07:11:19;;;;;;;11.20;3.27;;;11.70;99.90;;;;;;5041755;28;20296;-72
2022/11/03 07:13:48;;;;;;;11.57;2.77;;;11.80;99.90;;;;;;5041144;28;20209;-71
2022/11/03 07:16:26;;;;;;;9.43;3.47;;;11.80;99.90;;;;;;5041240;28;20287;-71
2022/11/03 07:18:53;;;;;;;12.80;3.13;;;11.80;99.90;;;;;;5025970;28;20239;-70
2022/11/03 07:21:36;;;;;;;12.10;3.40;;;11.80;99.90;;;;;;5038164;28;20232;-71
2022/11/03 07:24:19;;;;;;;14.10;2.80;;;11.80;99.90;;;;;;5042194;28;20633;-71
2022/11/03 07:26:47;;;;;;;16.03;3.50;;;11.90;99.90;;;;;;5038156;28;20208;-71
2022/11/03 07:29:23;;;;;;;10.23;3.20;;;11.90;99.90;;;;;;5048504;28;20200;-71
2022/11/03 07:34:32;;;;;;;13.27;3.37;;;11.90;99.90;;;;;;4922557;22;20247;-72
2022/11/03 07:36:59;;;;;;;10.03;3.20;;;12.00;99.90;;;;;;4992135;28;20234;-72
2022/11/03 07:39:33;;;;;;;14.23;3.23;;;12.00;99.90;;;;;;4994802;28;20247;-73
2022/11/03 07:42:10;;;;;;;11.30;3.37;;;12.10;99.90;;;;;;4994884;28;20917;-72
2022/11/03 07:44:38;;;;;;;11.73;3.37;;;12.00;99.90;;;;;;4990791;28;20765;-71
2022/11/03 07:47:11;;;;;;;12.50;3.10;;;12.10;99.90;;;;;;4993708;28;20611;-71
2022/11/03 07:49:39;;;;;;;12.37;3.30;;;12.10;99.90;;;;;;4990937;28;20199;-71
2022/11/03 07:52:11;;;;;;;15.20;3.80;;;12.20;99.90;;;;;;4994689;28;20738;-70
2022/11/03 07:54:37;;;;;;;12.53;3.17;;;12.20;99.90;;;;;;4993608;28;20764;-71
2022/11/03 07:57:17;;;;;;;7.47;2.83;;;12.30;99.90;;;;;;4995072;28;20203;-71
2022/11/03 07:59:48;;;;;;;9.67;3.40;;;12.30;99.90;;;;;;4993510;28;20223;-71
2022/11/03 08:02:31;;;;;;;11.00;3.17;;;12.40;99.90;;;;;;5002676;28;20214;-70
2022/11/03 08:04:59;;;;;;;11.93;3.53;;;12.40;99.90;;;;;;4995715;28;20651;-72
2022/11/03 08:07:30;;;;;;;11.13;2.90;;;12.60;99.90;;;;;;4997266;28;20231;-72
2022/11/03 08:09:57;;;;;;;9.80;2.90;;;12.50;99.90;;;;;;4991803;28;20214;-72
2022/11/03 08:12:26;;;;;;;10.80;3.50;;;12.60;99.90;;;;;;5011903;28;20298;-71
2022/11/03 08:14:52;;;;;;;9.87;3.13;;;12.60;99.90;;;;;;4999581;28;20210;-70
2022/11/03 08:17:19;;;;;;;9.70;3.63;;;12.60;99.90;;;;;;5000407;28;20210;-72
2022/11/03 08:19:46;;;;;;;8.53;3.10;;;12.60;99.90;;;;;;5015326;28;20245;-72
2022/11/03 08:22:13;;;;;;;10.47;3.30;;;12.70;99.90;;;;;;5001828;28;20223;-70
2022/11/03 08:24:39;;;;;;;11.57;3.23;;;12.70;99.90;;;;;;4997962;28;20603;-72
2022/11/03 08:27:06;;;;;;;10.40;3.43;;;12.80;99.90;;;;;;5017458;28;20199;-70
2022/11/03 08:29:33;;;;;;;11.13;3.20;;;12.80;99.90;;;;;;5004496;28;20210;-70
2022/11/03 08:32:00;;;;;;;8.13;3.00;;;12.90;99.90;;;;;;5015447;28;20300;-73
2022/11/03 08:34:27;;;;;;;7.83;3.27;;;12.90;99.90;;;;;;4999539;28;20246;-71
2022/11/03 08:36:53;;;;;;;7.73;3.10;;;13.00;99.90;;;;;;5001313;28;20221;-72
2022/11/03 08:39:20;;;;;;;10.20;3.00;;;13.00;99.90;;;;;;4998439;28;20225;-71
2022/11/03 08:41:47;;;;;;;7.10;3.47;;;13.00;99.90;;;;;;5000233;28;20231;-70
2022/11/03 08:44:13;;;;;;;12.63;3.33;;;13.10;99.90;;;;;;5002310;28;20289;-71
2022/11/03 08:46:40;;;;;;;10.43;2.73;;;13.20;99.90;;;;;;4997462;28;20283;-71
2022/11/03 08:49:07;;;;;;;16.40;3.87;;;13.20;99.90;;;;;;5000487;28;20199;-71
2022/11/03 08:51:33;;;;;;;11.37;3.30;;;13.30;99.90;;;;;;5001909;28;20254;-71
2022/11/03 08:54:05;;;;;;;8.23;3.00;;;13.30;99.90;;;;;;4995792;28;20246;-71
2022/11/03 08:56:32;;;;;;;9.60;2.97;;;13.40;99.90;;;;;;4999767;28;20206;-71
2022/11/03 08:58:59;;;;;;;11.53;3.07;;;13.40;99.90;;;;;;4999268;28;20207;-71
2022/11/03 09:01:25;;;;;;;11.47;3.03;;;13.80;99.90;;;;;;4999791;28;20329;-72
2022/11/03 09:03:52;;;;;;;9.37;3.33;;;13.60;99.90;;;;;;4997685;28;20195;-70
2022/11/03 09:06:19;;;;;;;10.97;2.77;;;13.60;99.90;;;;;;4999796;28;20237;-71
2022/11/03 09:08:46;;;;;;;7.60;2.77;;;13.70;99.90;;;;;;4995991;28;20207;-71
2022/11/03 09:11:33;;;;;;;7.87;3.13;;;13.70;99.90;;;;;;4997693;28;20210;-72
2022/11/03 09:13:59;;;;;;;10.40;3.67;;;13.80;99.90;;;;;;4993353;28;20520;-71
2022/11/03 09:16:26;;;;;;;11.17;4.23;;;13.80;99.90;;;;;;5011456;28;20298;-70
2022/11/03 09:18:53;;;;;;;8.27;3.00;;;13.90;99.90;;;;;;4994019;28;20726;-71
2022/11/03 09:21:19;;;;;;;10.97;3.43;;;14.10;99.90;;;;;;5001696;28;20463;-72
2022/11/03 09:23:46;;;;;;;10.83;3.43;;;14.10;99.90;;;;;;4997872;28;20577;-72
2022/11/03 09:26:13;;;;;;;7.70;2.50;;;14.10;99.90;;;;;;5000723;28;20210;-71
2022/11/03 09:28:39;;;;;;;11.57;3.17;;;14.10;99.90;;;;;;4997343;28;20737;-70
2022/11/03 09:31:07;;;;;;;17.03;3.70;;;14.20;99.90;;;;;;4995359;28;20639;-72
2022/11/03 09:33:33;;;;;;;9.00;3.30;;;14.20;99.90;;;;;;5000334;28;20215;-71
2022/11/03 09:36:01;;;;;;;13.03;3.70;;;14.30;99.90;;;;;;5012545;28;20242;-72
2022/11/03 09:38:27;;;;;;;12.13;3.47;;;14.30;99.90;;;;;;5001081;28;20659;-70
2022/11/03 09:40:54;;;;;;;12.30;3.30;;;14.30;99.90;;;;;;4998699;28;20293;-71
2022/11/03 09:43:21;;;;;;;12.20;2.97;;;14.30;99.90;;;;;;4998559;28;20293;-71
2022/11/03 09:45:48;;;;;;;8.63;2.70;;;14.40;99.90;;;;;;4998997;28;20214;-71
2022/11/03 09:48:15;;;;;;;8.97;3.17;;;14.40;99.90;;;;;;4998934;28;20248;-71
2022/11/03 09:50:42;;;;;;;11.07;3.30;;;14.40;99.90;;;;;;4999130;28;20289;-71
2022/11/03 09:53:10;;;;;;;13.73;2.83;;;14.40;99.90;;;;;;4998458;28;20199;-72
2022/11/03 09:55:38;;;;;;;10.97;2.80;;;14.40;99.90;;;;;;4998851;28;20638;-72
2022/11/03 09:58:16;;;;;;;11.57;3.63;;;14.40;99.90;;;;;;4999774;28;20206;-71
2022/11/03 10:00:43;;;;;;;12.13;3.73;;;14.50;99.90;;;;;;4998834;28;20230;-70
2022/11/03 10:03:15;;;;;;;10.83;3.20;;;14.50;99.90;;;;;;4998729;28;20218;-70
2022/11/03 10:05:46;;;;;;;9.13;2.90;;;14.60;99.90;;;;;;4998886;28;20598;-70
2022/11/03 10:08:21;;;;;;;6.93;2.73;;;14.60;99.90;;;;;;5008739;28;20202;-70
2022/11/03 10:10:49;;;;;;;9.23;3.20;;;14.80;99.90;;;;;;5013775;28;20296;-70
2022/11/03 10:13:30;;;;;;;9.60;3.03;;;14.80;99.90;;;;;;5017891;28;20297;-73
2022/11/03 10:16:02;;;;;;;8.53;2.90;;;14.90;99.90;;;;;;5016007;28;20213;-71
2022/11/03 10:18:28;;;;;;;7.83;2.80;;;15.00;99.90;;;;;;5013547;28;20206;-72
2022/11/03 10:21:02;;;;;;;9.60;2.93;;;15.00;99.90;;;;;;5016371;28;20255;-71
2022/11/03 10:23:28;;;;;;;7.43;2.70;;;15.20;99.90;;;;;;4997306;28;20292;-71
2022/11/03 10:26:17;;;;;;;9.93;3.17;;;15.20;99.90;;;;;;5018621;28;20237;-71
2022/11/03 10:29:03;;;;;;;10.20;3.15;;;15.30;99.90;;;;;;5014232;28;20220;-71
2022/11/03 10:31:35;;;;;;;9.30;3.00;;;15.30;99.90;;;;;;5018758;28;20206;-70
2022/11/03 10:34:03;;;;;;;9.03;2.87;;;15.30;99.90;;;;;;5019889;28;20573;-71
2022/11/03 10:36:32;;;;;;;14.77;3.50;;;15.30;99.90;;;;;;5018525;28;20597;-71
2022/11/03 10:39:19;;;;;;;9.17;2.60;;;15.30;99.90;;;;;;5015708;28;20641;-70
2022/11/03 10:41:57;;;;;;;7.50;2.83;;;15.30;99.90;;;;;;5002326;28;20602;-71
2022/11/03 10:44:27;;;;;;;8.43;2.33;;;15.30;99.90;;;;;;5014188;28;20244;-71
2022/11/03 10:46:59;;;;;;;7.67;2.43;;;15.20;99.90;;;;;;5017567;28;20390;-71
2022/11/03 10:49:31;;;;;;;11.57;3.10;;;15.20;99.90;;;;;;5016248;28;20289;-70
2022/11/03 10:52:21;;;;;;;9.70;2.90;;;15.20;99.90;;;;;;5000141;28;20264;-71
2022/11/03 10:54:50;;;;;;;7.40;2.63;;;15.20;99.90;;;;;;5012486;28;20213;-70
2022/11/03 10:57:18;;;;;;;9.47;2.50;;;15.20;99.90;;;;;;5016240;28;20292;-72
2022/11/03 10:59:47;;;;;;;10.67;3.73;;;15.20;99.90;;;;;;5018449;28;20297;-71
2022/11/03 11:02:20;;;;;;;8.27;2.70;;;15.20;99.90;;;;;;5005885;28;20236;-70
2022/11/03 11:04:51;;;;;;;8.93;2.77;;;15.20;99.90;;;;;;5015946;28;20206;-70
2022/11/03 11:07:25;;;;;;;9.87;2.80;;;15.20;99.90;;;;;;5017885;28;20345;-71
2022/11/03 11:09:53;;;;;;;7.87;3.50;;;15.10;99.90;;;;;;5012740;28;20199;-71
2022/11/03 11:12:24;;;;;;;10.30;3.70;;;15.10;99.90;;;;;;5017739;28;20210;-72
2022/11/03 11:14:57;;;;;;;8.37;2.33;;;15.10;99.90;;;;;;5019353;28;20659;-71
2022/11/03 11:17:46;;;;;;;5.95;2.70;;;15.10;99.90;;;;;;5015198;28;20570;-72
2022/11/03 11:20:30;;;;;;;8.10;3.03;;;15.10;99.90;;;;;;5012727;28;20202;-71
2022/11/03 11:23:25;;;;;;;9.83;3.00;;;15.10;99.90;;;;;;5016628;28;20749;-70
2022/11/03 11:26:24;;;;;;;8.07;2.53;;;15.10;99.90;;;;;;5015934;28;20297;-71
2022/11/03 11:29:09;;;;;;;7.60;2.47;;;15.10;99.90;;;;;;4987049;28;20691;-71
2022/11/03 11:31:40;;;;;;;11.03;2.97;;;15.20;99.90;;;;;;5015768;28;20619;-71
2022/11/03 11:34:17;;;;;;;13.00;2.90;;;15.20;99.90;;;;;;5017215;28;20273;-71
2022/11/03 11:36:46;;;;;;;8.37;3.03;;;15.30;99.90;;;;;;5016409;28;20293;-70
2022/11/03 11:39:21;;;;;;;7.53;3.53;;;15.40;99.90;;;;;;5014534;28;20245;-71
2022/11/03 11:42:16;;;;;;;5.85;2.30;;;15.50;99.90;;;;;;5016041;28;20225;-71
2022/11/03 11:44:44;;;;;;;8.70;2.78;;;15.60;99.90;;;;;;5011307;28;20216;-72
2022/11/03 11:47:22;;;;;;;9.80;3.10;;;15.80;99.90;;;;;;4999323;28;20268;-71
2022/11/03 11:50:04;;;;;;;7.60;2.88;;;15.90;99.90;;;;;;5017999;28;20274;-71
2022/11/03 11:52:35;;;;;;;7.72;2.50;;;16.10;99.90;;;;;;4999402;28;20237;-72
2022/11/03 11:55:03;;;;;;;8.95;2.60;;;16.10;99.90;;;;;;5020154;28;20218;-71
2022/11/03 11:57:33;;;;;;;8.75;2.40;;;16.20;99.90;;;;;;5020468;28;20337;-71
2022/11/03 12:00:00;;;;;;;11.40;2.88;;;16.20;99.90;;;;;;5018188;28;20248;-70
2022/11/03 12:02:29;;;;;;;7.85;2.40;;;16.10;99.90;;;;;;5019314;28;20226;-72
2022/11/03 12:05:03;;;;;;;5.72;2.05;;;16.10;99.90;;;;;;5016259;28;20671;-72
2022/11/03 12:07:32;;;;;;;6.13;2.40;;;16.10;99.90;;;;;;5016251;28;20222;-71
2022/11/03 12:10:21;;;;;;;9.23;2.47;;;16.10;99.90;;;;;;5018036;28;20667;-71
2022/11/03 12:12:49;;;;;;;6.00;2.22;;;16.20;99.90;;;;;;5021110;28;20217;-71
2022/11/03 12:15:47;;;;;;;9.90;2.45;;;16.20;99.90;;;;;;5022487;28;20340;-71
2022/11/03 12:18:45;;;;;;;7.20;2.00;;;16.20;99.90;;;;;;5016367;28;20725;-72
2022/11/03 12:21:47;;;;;;;9.38;2.15;;;16.30;99.90;;;;;;5016961;28;20238;-71
2022/11/03 12:24:32;;;;;;;7.20;2.40;;;16.40;99.90;;;;;;5012255;28;20273;-71
2022/11/03 12:27:00;;;;;;;7.80;2.45;;;16.40;99.90;;;;;;5015641;28;20720;-72
2022/11/03 12:29:27;;;;;;;7.65;2.80;;;16.40;99.90;;;;;;5020137;28;20285;-73
2022/11/03 12:31:54;;;;;;;6.75;2.83;;;16.40;99.90;;;;;;5018252;28;20612;-71
2022/11/03 12:34:21;;;;;;;10.40;2.40;;;16.40;99.90;;;;;;5021934;28;20322;-73
2022/11/03 12:36:47;;;;;;;11.00;2.47;;;16.40;99.90;;;;;;5018076;28;20219;-72
2022/11/03 12:39:21;;;;;;;9.88;2.72;;;16.40;99.90;;;;;;4998840;28;20208;-72
2022/11/03 12:41:48;;;;;;;11.27;2.63;;;16.20;99.90;;;;;;5011664;28;20230;-72
2022/11/03 12:44:15;;;;;;;7.35;2.35;;;16.30;99.90;;;;;;4992926;28;20202;-72
2022/11/03 12:46:41;;;;;;;7.00;2.47;;;16.40;99.90;;;;;;5000588;28;20264;-71
2022/11/03 12:49:08;;;;;;;6.45;2.88;;;16.40;99.90;;;;;;5013617;28;20226;-72
2022/11/03 12:51:35;;;;;;;6.82;2.40;;;16.50;99.90;;;;;;5010163;28;20222;-71
2022/11/03 12:54:02;;;;;;;7.78;2.60;;;16.50;99.90;;;;;;5015237;28;20218;-71
2022/11/03 12:56:29;;;;;;;7.90;2.72;;;16.60;99.90;;;;;;5012186;28;20208;-69
2022/11/03 12:58:55;;;;;;;11.13;3.00;;;16.60;99.90;;;;;;4996715;28;20208;-72
2022/11/03 13:01:22;;;;;;;10.02;2.35;;;16.70;99.90;;;;;;5007552;28;20241;-70
2022/11/03 13:03:49;;;;;;;6.07;2.28;;;16.70;99.90;;;;;;5009876;28;20593;-71
2022/11/03 13:06:16;;;;;;;5.20;2.15;;;16.80;99.90;;;;;;5018060;28;20226;-72
2022/11/03 13:08:43;;;;;;;7.22;2.58;;;16.90;99.90;;;;;;4991201;28;20277;-70
2022/11/03 13:14:00;;;;;;;7.88;2.50;;;17.00;99.90;;;;;;5018995;28;20245;-71
2022/11/03 13:16:27;;;;;;;7.22;2.63;;;16.90;99.90;;;;;;5011131;28;20280;-71
2022/11/03 13:18:53;;;;;;;5.95;2.35;;;16.90;99.90;;;;;;5009312;28;20208;-72
2022/11/03 13:21:20;;;;;;;6.65;2.33;;;16.80;99.90;;;;;;5011766;28;20230;-71
2022/11/03 13:23:47;;;;;;;7.43;2.20;;;16.80;99.90;;;;;;5013938;28;20245;-72